createdAt,value
2022-12-31T00:00:10.361Z,12.55
2022-12-31T00:02:37.268Z,10.60
2022-12-31T00:05:04.618Z,8.18
2022-12-31T00:09:57.801Z,10.63
2022-12-31T00:12:25.511Z,14.75
2022-12-31T00:14:52.308Z,15.75
2022-12-31T00:17:19.174Z,12.13
2022-12-31T00:19:45.903Z,18.88
2022-12-31T00:22:12.644Z,18.95
2022-12-31T00:24:39.466Z,13.20
2022-12-31T00:27:06.159Z,18.88
2022-12-31T00:30:16.288Z,16.40
2022-12-31T00:36:26.481Z,16.52
2022-12-31T00:38:55.424Z,14.65
2022-12-31T00:41:22.928Z,13.18
2022-12-31T00:43:50.393Z,14.57
2022-12-31T00:46:18.075Z,13.45
2022-12-31T00:48:45.326Z,16.42
2022-12-31T00:51:29.180Z,13.27
2022-12-31T00:53:57.327Z,17.17
2022-12-31T00:56:26.957Z,19.30
2022-12-31T00:58:54.427Z,25.95
2022-12-31T01:01:27.790Z,22.50
2022-12-31T01:03:58.791Z,16.02
2022-12-31T01:06:26.212Z,10.75
2022-12-31T01:08:55.282Z,12.57
2022-12-31T01:11:23.412Z,15.77
2022-12-31T01:13:54.362Z,17.70
2022-12-31T01:16:34.963Z,18.50
2022-12-31T01:19:06.064Z,18.42
2022-12-31T01:21:35.115Z,12.15
2022-12-31T01:24:02.110Z,15.70
2022-12-31T01:26:29.062Z,22.27
2022-12-31T01:28:55.863Z,14.73
2022-12-31T01:31:35.734Z,18.42
2022-12-31T01:34:22.790Z,11.10
2022-12-31T01:36:49.989Z,17.67
2022-12-31T01:39:22.008Z,23.05
2022-12-31T01:42:01.010Z,11.10
2022-12-31T01:44:27.672Z,21.70
2022-12-31T01:46:58.989Z,19.10
2022-12-31T01:49:40.920Z,9.07
2022-12-31T01:52:30.946Z,15.77
2022-12-31T01:55:15.174Z,18.85
2022-12-31T01:57:44.269Z,21.27
2022-12-31T02:00:11.715Z,18.92
2022-12-31T02:02:38.911Z,21.63
2022-12-31T02:05:28.026Z,15.73
2022-12-31T02:08:14.125Z,20.40
2022-12-31T02:10:40.938Z,15.45
2022-12-31T02:13:07.951Z,20.50
2022-12-31T02:16:05.192Z,16.33
2022-12-31T02:18:50.070Z,14.90
2022-12-31T02:21:42.324Z,13.68
2022-12-31T02:24:32.175Z,14.95
2022-12-31T02:27:01.988Z,18.20
2022-12-31T02:33:24.862Z,11.80
2022-12-31T02:40:20.052Z,13.88
2022-12-31T02:43:33.948Z,18.40
2022-12-31T02:46:43.893Z,17.50
2022-12-31T02:49:22.956Z,18.77
2022-12-31T02:52:25.316Z,14.93
2022-12-31T02:55:20.632Z,13.10
2022-12-31T02:58:21.533Z,13.50
2022-12-31T03:01:43.966Z,17.63
2022-12-31T03:04:36.396Z,15.45
2022-12-31T03:07:13.693Z,23.70
2022-12-31T03:09:41.943Z,17.85
2022-12-31T03:12:30.024Z,19.15
2022-12-31T03:15:22.387Z,17.23
2022-12-31T03:17:52.177Z,19.10
2022-12-31T03:27:35.629Z,16.70
2022-12-31T03:30:02.368Z,15.50
2022-12-31T03:32:29.171Z,20.58
2022-12-31T03:35:16.239Z,18.13
2022-12-31T03:37:43.643Z,14.77
2022-12-31T03:47:41.401Z,13.30
2022-12-31T03:50:46.955Z,13.27
2022-12-31T03:53:35.729Z,12.05
2022-12-31T03:56:24.983Z,15.63
2022-12-31T03:58:51.772Z,16.70
2022-12-31T04:01:19.447Z,21.70
2022-12-31T04:12:08.568Z,20.98
2022-12-31T04:17:17.935Z,19.55
2022-12-31T04:27:50.198Z,18.35
2022-12-31T04:30:17.088Z,20.90
2022-12-31T04:32:44.117Z,9.60
2022-12-31T04:35:11.867Z,18.85
2022-12-31T04:38:21.637Z,23.88
2022-12-31T04:41:06.609Z,17.23
2022-12-31T04:43:33.282Z,13.00
2022-12-31T04:50:12.165Z,11.63
2022-12-31T04:53:03.269Z,12.50
2022-12-31T04:59:54.662Z,7.05
2022-12-31T05:02:21.590Z,12.77
2022-12-31T05:04:48.632Z,12.90
2022-12-31T05:07:19.706Z,15.10
2022-12-31T05:10:03.877Z,11.43
2022-12-31T05:12:30.717Z,18.95
2022-12-31T05:14:57.496Z,17.25
2022-12-31T05:17:24.268Z,20.70
2022-12-31T05:19:54.321Z,22.80
2022-12-31T05:23:17.438Z,26.90
2022-12-31T05:26:20.820Z,23.52
2022-12-31T05:28:47.529Z,24.67
2022-12-31T05:31:14.267Z,23.27
2022-12-31T05:38:26.125Z,29.88
2022-12-31T05:41:53.701Z,23.55
2022-12-31T05:48:01.050Z,28.60
2022-12-31T05:51:25.482Z,26.48
2022-12-31T05:53:59.679Z,22.63
2022-12-31T06:00:18.733Z,21.92
2022-12-31T06:03:17.807Z,27.02
2022-12-31T06:05:44.623Z,21.45
2022-12-31T06:08:12.497Z,21.13
2022-12-31T06:10:40.094Z,28.90
2022-12-31T06:13:07.170Z,19.27
2022-12-31T06:15:36.915Z,22.55
2022-12-31T06:18:03.729Z,18.52
2022-12-31T06:20:30.468Z,17.08
2022-12-31T06:22:57.276Z,21.40
2022-12-31T06:25:23.988Z,16.75
2022-12-31T06:27:55.112Z,16.33
2022-12-31T06:31:15.723Z,16.13
2022-12-31T06:33:42.797Z,15.90
2022-12-31T06:36:14.413Z,14.20
2022-12-31T06:38:42.459Z,18.40
2022-12-31T06:41:14.237Z,18.02
2022-12-31T06:43:42.423Z,9.70
2022-12-31T06:46:12.163Z,12.63
2022-12-31T06:48:39.632Z,15.63
2022-12-31T06:51:16.611Z,16.63
2022-12-31T06:53:45.166Z,16.77
2022-12-31T06:56:18.602Z,13.85
2022-12-31T06:58:46.378Z,21.23
2022-12-31T07:01:28.467Z,18.50
2022-12-31T07:08:16.477Z,17.23
2022-12-31T07:10:59.963Z,15.95
2022-12-31T07:13:38.643Z,15.45
2022-12-31T07:16:16.619Z,11.85
2022-12-31T07:19:57.819Z,14.25
2022-12-31T07:22:25.510Z,9.30
2022-12-31T07:24:52.667Z,15.00
2022-12-31T07:27:37.803Z,13.45
2022-12-31T07:30:09.814Z,10.65
2022-12-31T07:32:42.739Z,10.98
2022-12-31T07:35:35.279Z,16.02
2022-12-31T07:38:26.945Z,9.40
2022-12-31T07:41:31.234Z,17.63
2022-12-31T07:48:35.329Z,13.88
2022-12-31T07:51:02.258Z,7.18
2022-12-31T07:54:14.399Z,12.77
2022-12-31T07:56:48.195Z,12.52
2022-12-31T07:59:42.794Z,9.60
2022-12-31T08:02:14.060Z,13.85
2022-12-31T08:04:54.025Z,17.45
2022-12-31T08:07:58.181Z,20.77
2022-12-31T08:10:33.224Z,13.55
2022-12-31T08:13:06.510Z,12.23
2022-12-31T08:15:36.956Z,17.83
2022-12-31T08:22:41.645Z,13.10
2022-12-31T08:26:01.330Z,9.07
2022-12-31T08:28:33.771Z,12.00
2022-12-31T08:45:31.527Z,9.90
2022-12-31T08:48:26.691Z,12.82
2022-12-31T08:51:20.703Z,17.58
2022-12-31T08:53:48.461Z,10.55
2022-12-31T09:04:08.817Z,10.05
2022-12-31T09:13:30.360Z,7.57
2022-12-31T09:16:28.507Z,7.40
2022-12-31T09:18:55.276Z,7.40
2022-12-31T09:21:22.218Z,4.88
2022-12-31T09:23:49.806Z,8.63
2022-12-31T09:26:34.775Z,4.78
2022-12-31T09:29:22.720Z,7.97
2022-12-31T09:32:17.353Z,3.28
2022-12-31T09:34:58.570Z,9.57
2022-12-31T09:37:38.593Z,10.02
2022-12-31T09:40:40.202Z,6.90
2022-12-31T09:43:09.684Z,11.02
2022-12-31T09:46:09.650Z,9.30
2022-12-31T09:48:45.433Z,14.57
2022-12-31T09:51:56.415Z,8.63
2022-12-31T09:54:29.161Z,8.73
2022-12-31T09:56:59.283Z,21.27
2022-12-31T10:00:04.308Z,15.20
2022-12-31T10:02:55.352Z,11.35
2022-12-31T10:05:27.994Z,19.83
2022-12-31T10:08:20.998Z,10.82
2022-12-31T10:10:59.032Z,19.35
2022-12-31T10:13:28.624Z,12.50
2022-12-31T10:16:20.191Z,12.88
2022-12-31T10:19:15.125Z,15.55
2022-12-31T10:22:23.390Z,12.93
2022-12-31T10:25:14.708Z,17.40
2022-12-31T10:28:41.070Z,9.85
2022-12-31T10:31:33.719Z,10.18
2022-12-31T10:36:47.729Z,10.15
2022-12-31T10:39:32.200Z,7.97
2022-12-31T10:41:58.811Z,11.13
2022-12-31T10:44:44.002Z,13.15
2022-12-31T10:47:42.828Z,12.23
2022-12-31T10:50:39.184Z,10.32
2022-12-31T10:53:18.323Z,16.75
2022-12-31T10:55:54.477Z,8.35
2022-12-31T10:58:52.784Z,12.18
2022-12-31T11:01:33.145Z,7.38
2022-12-31T11:04:35.395Z,6.85
2022-12-31T11:07:15.363Z,10.02
2022-12-31T11:10:21.907Z,7.10
2022-12-31T11:12:57.541Z,5.50
2022-12-31T11:16:01.328Z,6.53
2022-12-31T11:22:44.705Z,6.93
2022-12-31T11:25:11.405Z,7.88
2022-12-31T11:28:05.978Z,11.90
2022-12-31T11:31:01.832Z,8.20
2022-12-31T11:33:50.714Z,7.28
2022-12-31T11:36:32.011Z,6.63
2022-12-31T11:39:01.689Z,5.22
2022-12-31T11:41:54.478Z,5.30
2022-12-31T11:44:48.408Z,3.72
2022-12-31T11:47:33.580Z,9.23
2022-12-31T11:50:29.305Z,2.95
2022-12-31T11:53:36.341Z,4.07
2022-12-31T11:56:18.500Z,4.68
2022-12-31T11:58:54.938Z,7.80
2022-12-31T12:01:26.618Z,11.85
2022-12-31T12:03:53.539Z,13.27
2022-12-31T12:06:41.155Z,8.48
2022-12-31T12:09:17.011Z,11.43
2022-12-31T12:11:43.818Z,16.70
2022-12-31T12:14:35.955Z,15.98
2022-12-31T12:17:14.712Z,15.13
2022-12-31T12:19:56.942Z,12.13
2022-12-31T12:22:32.842Z,9.75
2022-12-31T12:25:22.584Z,7.72
2022-12-31T12:27:50.055Z,8.40
2022-12-31T12:30:27.071Z,9.00
2022-12-31T12:33:04.811Z,8.82
2022-12-31T12:35:36.122Z,9.90
2022-12-31T12:38:13.812Z,14.90
2022-12-31T12:40:52.546Z,13.82
2022-12-31T12:43:39.567Z,12.88
2022-12-31T12:46:30.587Z,11.20
2022-12-31T12:48:58.466Z,11.73
2022-12-31T12:51:44.199Z,8.68
2022-12-31T12:54:20.177Z,11.65
2022-12-31T12:57:12.087Z,12.65
2022-12-31T13:00:00.592Z,8.98
2022-12-31T13:02:39.466Z,18.77
2022-12-31T13:05:46.495Z,17.95
2022-12-31T13:08:15.873Z,19.35
2022-12-31T13:11:06.343Z,17.52
2022-12-31T13:14:04.699Z,11.85
2022-12-31T13:16:42.870Z,13.18
2022-12-31T13:19:24.303Z,12.05
2022-12-31T13:22:34.714Z,15.35
2022-12-31T13:25:32.084Z,10.68
2022-12-31T13:31:40.461Z,16.83
2022-12-31T13:34:18.523Z,16.42
2022-12-31T13:36:48.795Z,22.73
2022-12-31T13:39:20.580Z,21.70
2022-12-31T13:42:01.250Z,20.17
2022-12-31T13:44:49.634Z,17.40
2022-12-31T13:47:22.516Z,19.77
2022-12-31T13:49:52.990Z,12.20
2022-12-31T13:52:42.241Z,20.10
2022-12-31T13:55:31.608Z,20.98
2022-12-31T13:58:05.052Z,15.82
2022-12-31T14:00:45.573Z,29.73
2022-12-31T14:03:43.923Z,29.83
2022-12-31T14:06:54.889Z,23.25
2022-12-31T14:09:28.798Z,21.55
2022-12-31T14:12:23.076Z,18.35
2022-12-31T14:14:59.019Z,17.00
2022-12-31T14:17:40.396Z,18.55
2022-12-31T14:20:49.221Z,21.40
2022-12-31T14:23:53.444Z,18.60
2022-12-31T14:26:43.480Z,13.15
2022-12-31T14:29:10.225Z,15.82
2022-12-31T14:31:49.377Z,27.23
2022-12-31T14:34:30.655Z,15.27
2022-12-31T14:37:04.102Z,20.15
2022-12-31T14:39:55.660Z,17.08
2022-12-31T14:42:33.965Z,20.10
2022-12-31T14:45:18.604Z,31.08
2022-12-31T14:48:11.459Z,20.25
2022-12-31T14:50:38.811Z,23.45
2022-12-31T14:53:08.650Z,24.77
2022-12-31T14:55:41.021Z,16.23
2022-12-31T14:58:30.200Z,14.63
2022-12-31T15:01:00.021Z,16.83
2022-12-31T15:03:44.719Z,26.65
2022-12-31T15:06:18.365Z,12.68
2022-12-31T15:09:12.116Z,20.80
2022-12-31T15:12:05.238Z,21.75
2022-12-31T15:14:58.073Z,24.23
2022-12-31T15:17:36.934Z,22.75
2022-12-31T15:20:41.158Z,15.10
2022-12-31T15:23:23.568Z,18.15
2022-12-31T15:26:00.642Z,15.32
2022-12-31T15:28:39.663Z,21.08
2022-12-31T15:31:18.822Z,22.45
2022-12-31T15:34:06.705Z,11.40
2022-12-31T15:36:39.549Z,19.48
2022-12-31T15:39:40.783Z,20.10
2022-12-31T15:42:47.259Z,19.05
2022-12-31T15:45:26.196Z,33.42
2022-12-31T15:47:58.914Z,19.08
2022-12-31T15:50:26.298Z,23.75
2022-12-31T15:53:26.904Z,11.98
2022-12-31T15:56:49.196Z,15.40
2022-12-31T15:59:18.484Z,18.52
2022-12-31T16:01:46.901Z,19.80
2022-12-31T16:04:29.438Z,10.63
2022-12-31T16:07:01.497Z,23.33
2022-12-31T16:10:13.256Z,25.77
2022-12-31T16:12:44.586Z,17.92
2022-12-31T16:15:24.634Z,18.00
2022-12-31T16:18:03.540Z,25.92
2022-12-31T16:20:33.753Z,16.63
2022-12-31T16:23:03.456Z,15.85
2022-12-31T16:25:33.387Z,18.15
2022-12-31T16:28:02.736Z,15.57
2022-12-31T16:30:32.207Z,13.57
2022-12-31T16:33:15.566Z,14.73
2022-12-31T16:35:42.950Z,14.30
2022-12-31T16:38:19.053Z,14.93
2022-12-31T16:41:00.932Z,24.02
2022-12-31T16:43:37.422Z,15.73
2022-12-31T16:46:44.217Z,17.20
2022-12-31T16:49:21.320Z,14.10
2022-12-31T16:51:49.733Z,19.98
2022-12-31T16:54:40.817Z,22.58
2022-12-31T16:57:10.992Z,24.13
2022-12-31T17:00:24.346Z,18.05
2022-12-31T17:03:09.657Z,14.32
2022-12-31T17:05:54.097Z,11.75
2022-12-31T17:08:51.435Z,19.52
2022-12-31T17:11:28.903Z,15.93
2022-12-31T17:14:00.853Z,19.63
2022-12-31T17:16:29.109Z,34.03
2022-12-31T17:18:56.014Z,50.33
2022-12-31T17:25:26.260Z,48.67
2022-12-31T17:28:00.430Z,33.28
2022-12-31T17:30:29.945Z,41.08
2022-12-31T17:33:03.905Z,42.90
2022-12-31T17:35:33.428Z,25.30
2022-12-31T17:38:27.974Z,22.25
2022-12-31T17:41:06.614Z,23.73
2022-12-31T17:43:36.379Z,21.67
2022-12-31T17:46:11.008Z,30.88
2022-12-31T17:48:37.901Z,22.33
2022-12-31T17:51:05.930Z,22.52
2022-12-31T17:53:32.677Z,26.08
2022-12-31T17:56:05.335Z,23.17
2022-12-31T17:58:41.160Z,25.83
2022-12-31T18:01:09.867Z,18.50
2022-12-31T18:03:38.719Z,20.42
2022-12-31T18:06:05.579Z,24.23
2022-12-31T18:08:32.392Z,24.45
2022-12-31T18:10:59.214Z,23.52
2022-12-31T18:13:27.732Z,19.98
2022-12-31T18:15:55.349Z,16.98
2022-12-31T18:18:29.096Z,24.50
2022-12-31T18:21:11.595Z,19.40
2022-12-31T18:26:10.063Z,27.60
2022-12-31T18:28:36.800Z,27.30
2022-12-31T18:31:03.556Z,24.58
2022-12-31T18:33:30.589Z,22.73
2022-12-31T18:36:08.661Z,30.27
2022-12-31T18:38:35.820Z,31.58
2022-12-31T18:41:02.864Z,25.88
2022-12-31T18:43:29.586Z,22.13
2022-12-31T18:45:56.545Z,27.77
2022-12-31T18:48:23.345Z,26.25
2022-12-31T18:50:50.614Z,25.05
2022-12-31T18:53:23.530Z,28.92
2022-12-31T18:55:56.983Z,28.63
2022-12-31T18:58:24.489Z,25.38
2022-12-31T19:00:52.206Z,22.58
2022-12-31T19:03:22.454Z,32.55
2022-12-31T19:05:51.205Z,46.08
2022-12-31T19:08:19.978Z,57.47
2022-12-31T19:11:46.725Z,58.75
2022-12-31T19:14:20.545Z,61.25
2022-12-31T19:17:32.083Z,62.28
2022-12-31T19:20:04.318Z,58.03
2022-12-31T19:22:36.226Z,48.72
2022-12-31T19:25:06.054Z,59.63
2022-12-31T19:27:32.783Z,49.63
2022-12-31T19:30:00.729Z,71.63
2022-12-31T19:32:27.462Z,72.90
2022-12-31T19:34:54.229Z,74.03
2022-12-31T19:37:21.124Z,68.10
2022-12-31T19:39:48.353Z,59.55
2022-12-31T19:42:17.785Z,66.15
2022-12-31T19:44:44.633Z,72.68
2022-12-31T19:47:14.459Z,74.57
2022-12-31T19:49:41.225Z,83.10
2022-12-31T19:52:09.516Z,75.68
2022-12-31T19:54:36.594Z,86.90
2022-12-31T19:57:06.376Z,84.38
2022-12-31T19:59:33.115Z,79.55
2022-12-31T20:02:03.199Z,89.28
2022-12-31T20:04:30.177Z,77.90
2022-12-31T20:06:56.896Z,73.55
2022-12-31T20:09:23.646Z,64.85
2022-12-31T20:11:50.438Z,68.97
2022-12-31T20:14:17.288Z,63.45
2022-12-31T20:16:44.063Z,77.50
2022-12-31T20:19:11.045Z,62.13
2022-12-31T20:21:39.329Z,48.72
2022-12-31T20:24:06.506Z,47.70
2022-12-31T20:26:33.245Z,54.22
2022-12-31T20:29:00.090Z,57.50
2022-12-31T20:31:26.917Z,55.88
2022-12-31T20:33:54.402Z,49.72
2022-12-31T20:36:22.145Z,45.97
2022-12-31T20:38:51.840Z,46.40
2022-12-31T20:41:21.875Z,49.47
2022-12-31T20:43:49.168Z,59.38
2022-12-31T20:46:22.031Z,54.78
2022-12-31T20:48:51.269Z,61.17
2022-12-31T20:51:19.618Z,66.90
2022-12-31T20:53:57.716Z,62.88
2022-12-31T20:56:27.669Z,64.80
2022-12-31T20:58:54.785Z,54.10
2022-12-31T21:01:22.078Z,63.65
2022-12-31T21:04:06.296Z,61.13
2022-12-31T21:06:35.569Z,68.50
2022-12-31T21:09:07.057Z,64.30
2022-12-31T21:11:52.785Z,61.70
2022-12-31T21:14:20.134Z,57.00
2022-12-31T21:16:47.057Z,59.35
2022-12-31T21:19:13.814Z,55.75
2022-12-31T21:21:41.123Z,56.30
2022-12-31T21:24:08.355Z,57.60
2022-12-31T21:26:35.209Z,54.92
2022-12-31T21:29:02.233Z,52.67
2022-12-31T21:31:29.101Z,54.00
2022-12-31T21:33:55.873Z,52.88
2022-12-31T21:36:38.900Z,75.75
2022-12-31T21:39:05.667Z,56.75
2022-12-31T21:41:51.059Z,55.22
2022-12-31T21:44:21.744Z,56.88
2022-12-31T21:47:24.824Z,52.08
2022-12-31T21:49:36.405Z,59.75
2022-12-31T21:52:40.748Z,54.83
2022-12-31T21:55:26.513Z,53.00
2022-12-31T21:58:25.361Z,56.15
2022-12-31T22:00:59.060Z,54.45
2022-12-31T22:03:45.284Z,51.72
2022-12-31T22:06:20.708Z,53.30
2022-12-31T22:08:57.274Z,50.92
2022-12-31T22:11:27.259Z,52.40
2022-12-31T22:14:14.316Z,56.63
2022-12-31T22:16:41.293Z,56.70
2022-12-31T22:19:08.131Z,64.47
2022-12-31T22:21:35.955Z,84.75
2022-12-31T22:24:03.213Z,79.70
2022-12-31T22:26:29.953Z,93.72
2022-12-31T22:29:00.208Z,83.15
2022-12-31T22:31:33.348Z,75.95
2022-12-31T22:34:00.221Z,178.80
2022-12-31T22:36:27.048Z,115.45
2022-12-31T22:38:58.359Z,99.68
2022-12-31T22:41:26.526Z,92.13
2022-12-31T22:44:02.630Z,110.97
2022-12-31T22:46:30.916Z,134.80
2022-12-31T22:48:59.288Z,91.20
2022-12-31T22:51:54.946Z,78.10
2022-12-31T22:54:13.933Z,77.30
2022-12-31T22:56:40.992Z,70.88
2022-12-31T22:59:07.771Z,65.78
2022-12-31T23:01:56.176Z,63.03
2022-12-31T23:04:24.651Z,61.97
2022-12-31T23:07:26.478Z,57.33
2022-12-31T23:10:32.222Z,56.22
2022-12-31T23:12:59.100Z,63.30
2022-12-31T23:15:44.547Z,59.40
2022-12-31T23:18:29.797Z,57.53
2022-12-31T23:21:14.727Z,50.63
2022-12-31T23:23:41.483Z,51.53
2022-12-31T23:26:28.249Z,50.58
2022-12-31T23:28:54.969Z,41.17
2022-12-31T23:31:21.717Z,36.75
2022-12-31T23:33:48.433Z,25.80
2022-12-31T23:36:15.239Z,20.02
2022-12-31T23:38:42.005Z,19.23
2022-12-31T23:41:14.000Z,13.75
2022-12-31T23:43:40.742Z,8.43
2022-12-31T23:46:09.026Z,7.88
2022-12-31T23:48:35.806Z,5.85
2022-12-31T23:51:09.040Z,7.85
2022-12-31T23:53:38.568Z,8.38
2022-12-31T23:56:15.015Z,5.97
2022-12-31T23:58:47.937Z,7.35
